createdAt,value
2022-09-24T00:01:41.331Z,22.75
2022-09-24T00:04:12.061Z,15.93
2022-09-24T00:06:42.327Z,14.23
2022-09-24T00:09:10.578Z,17.98
2022-09-24T00:11:40.358Z,21.98
2022-09-24T00:14:08.808Z,23.85
2022-09-24T00:16:37.268Z,13.50
2022-09-24T00:19:06.140Z,18.33
2022-09-24T00:21:37.311Z,17.33
2022-09-24T00:24:07.934Z,17.08
2022-09-24T00:26:50.488Z,20.02
2022-09-24T00:29:21.833Z,20.38
2022-09-24T00:31:50.262Z,18.25
2022-09-24T00:34:18.569Z,18.48
2022-09-24T00:36:47.024Z,20.95
2022-09-24T00:39:15.380Z,15.15
2022-09-24T00:41:48.040Z,15.55
2022-09-24T00:44:49.210Z,16.33
2022-09-24T00:47:27.085Z,14.95
2022-09-24T00:50:01.815Z,14.75
2022-09-24T00:52:29.710Z,18.40
2022-09-24T00:54:58.015Z,16.40
2022-09-24T00:57:26.505Z,14.43
2022-09-24T00:59:56.373Z,20.40
2022-09-24T01:02:24.906Z,13.60
2022-09-24T01:04:56.575Z,16.20
2022-09-24T01:07:25.434Z,14.90
2022-09-24T01:09:53.861Z,17.90
2022-09-24T01:12:31.059Z,22.88
2022-09-24T01:15:16.778Z,16.00
2022-09-24T01:17:54.057Z,16.52
2022-09-24T01:20:43.542Z,17.80
2022-09-24T01:23:27.986Z,17.23
2022-09-24T01:26:12.079Z,15.45
2022-09-24T01:28:57.508Z,16.27
2022-09-24T01:31:32.516Z,14.95
2022-09-24T01:34:05.651Z,15.35
2022-09-24T01:36:36.813Z,15.27
2022-09-24T01:39:07.717Z,13.75
2022-09-24T01:41:38.470Z,17.30
2022-09-24T01:44:07.923Z,18.13
2022-09-24T01:46:39.593Z,18.70
2022-09-24T01:49:07.941Z,13.63
2022-09-24T01:51:43.946Z,15.07
2022-09-24T01:54:19.809Z,16.58
2022-09-24T01:56:51.895Z,17.15
2022-09-24T01:59:25.212Z,17.58
2022-09-24T02:01:58.867Z,16.80
2022-09-24T02:04:29.352Z,16.73
2022-09-24T02:07:01.910Z,17.90
2022-09-24T02:09:34.671Z,18.88
2022-09-24T02:12:11.089Z,19.13
2022-09-24T02:14:43.631Z,14.00
2022-09-24T02:17:15.078Z,19.60
2022-09-24T02:19:43.554Z,15.93
2022-09-24T02:22:13.672Z,18.00
2022-09-24T02:24:46.595Z,23.08
2022-09-24T02:27:14.703Z,15.98
2022-09-24T02:29:42.635Z,15.18
2022-09-24T02:32:17.341Z,18.08
2022-09-24T02:34:48.779Z,24.85
2022-09-24T02:37:17.929Z,15.77
2022-09-24T02:39:45.769Z,15.98
2022-09-24T02:42:16.230Z,14.63
2022-09-24T02:44:44.119Z,26.08
2022-09-24T02:47:13.307Z,14.73
2022-09-24T02:49:41.462Z,19.98
2022-09-24T02:52:10.283Z,23.60
2022-09-24T02:54:38.295Z,19.27
2022-09-24T02:57:06.378Z,20.95
2022-09-24T02:59:34.263Z,18.20
2022-09-24T03:02:02.447Z,17.88
2022-09-24T03:04:31.824Z,17.92
2022-09-24T03:06:59.728Z,17.85
2022-09-24T03:09:27.630Z,16.73
2022-09-24T03:12:00.567Z,14.05
2022-09-24T03:14:28.936Z,16.70
2022-09-24T03:16:56.777Z,22.35
2022-09-24T03:19:24.680Z,19.58
2022-09-24T03:21:53.880Z,14.18
2022-09-24T03:24:21.933Z,19.45
2022-09-24T03:26:49.762Z,21.58
2022-09-24T03:29:37.625Z,17.25
2022-09-24T03:32:04.520Z,20.08
2022-09-24T03:34:32.345Z,15.23
2022-09-24T03:37:01.509Z,19.05
2022-09-24T03:39:29.393Z,18.83
2022-09-24T03:41:57.208Z,18.35
2022-09-24T03:44:25.763Z,18.70
2022-09-24T03:46:53.626Z,21.83
2022-09-24T03:49:23.433Z,17.45
2022-09-24T03:51:51.301Z,14.02
2022-09-24T03:54:20.624Z,15.23
2022-09-24T03:56:48.477Z,17.52
2022-09-24T03:59:16.369Z,16.88
2022-09-24T04:01:44.245Z,15.15
2022-09-24T04:04:14.407Z,12.98
2022-09-24T04:06:42.293Z,23.50
2022-09-24T04:09:11.303Z,18.83
2022-09-24T04:11:40.510Z,19.45
2022-09-24T04:14:09.448Z,21.35
2022-09-24T04:16:37.428Z,23.50
2022-09-24T04:19:05.442Z,21.13
2022-09-24T04:21:33.324Z,18.95
2022-09-24T04:24:01.574Z,17.75
2022-09-24T04:26:29.411Z,16.75
2022-09-24T04:28:59.238Z,15.13
2022-09-24T04:31:27.591Z,18.20
2022-09-24T04:33:55.710Z,14.93
2022-09-24T04:36:23.567Z,21.65
2022-09-24T04:38:51.515Z,15.75
2022-09-24T04:41:19.374Z,16.73
2022-09-24T04:43:47.219Z,17.60
2022-09-24T04:46:19.097Z,18.15
2022-09-24T04:48:46.974Z,18.08
2022-09-24T04:51:16.729Z,18.30
2022-09-24T04:53:45.477Z,14.18
2022-09-24T04:56:13.611Z,15.25
2022-09-24T04:58:41.750Z,22.90
2022-09-24T05:01:09.826Z,25.75
2022-09-24T05:03:39.327Z,19.92
2022-09-24T05:06:07.351Z,16.83
2022-09-24T05:08:45.100Z,18.35
2022-09-24T05:11:14.068Z,18.77
2022-09-24T05:13:42.002Z,15.18
2022-09-24T05:16:09.928Z,13.93
2022-09-24T05:18:39.280Z,21.20
2022-09-24T05:21:07.528Z,16.65
2022-09-24T05:23:36.144Z,15.45
2022-09-24T05:26:21.520Z,24.08
2022-09-24T05:28:49.335Z,15.27
2022-09-24T05:31:17.546Z,15.45
2022-09-24T05:33:46.776Z,16.33
2022-09-24T05:36:14.684Z,18.65
2022-09-24T05:38:42.532Z,14.30
2022-09-24T05:41:10.709Z,15.32
2022-09-24T05:43:38.636Z,12.70
2022-09-24T05:46:07.981Z,14.38
2022-09-24T05:48:36.030Z,14.15
2022-09-24T05:51:05.586Z,11.77
2022-09-24T05:53:33.917Z,16.40
2022-09-24T05:56:02.426Z,15.60
2022-09-24T05:58:30.286Z,12.98
2022-09-24T06:00:59.926Z,15.30
2022-09-24T06:03:27.902Z,16.80
2022-09-24T06:05:56.402Z,17.08
2022-09-24T06:08:25.672Z,21.20
2022-09-24T06:10:54.215Z,12.25
2022-09-24T06:13:22.519Z,14.13
2022-09-24T06:15:50.397Z,15.27
2022-09-24T06:18:18.352Z,20.35
2022-09-24T06:20:46.938Z,14.45
2022-09-24T06:23:14.901Z,12.88
2022-09-24T06:25:44.101Z,15.27
2022-09-24T06:28:11.979Z,11.70
2022-09-24T06:30:41.286Z,11.38
2022-09-24T06:33:10.863Z,14.55
2022-09-24T06:35:40.001Z,11.98
2022-09-24T06:38:09.738Z,11.82
2022-09-24T06:40:38.023Z,14.68
2022-09-24T06:43:07.821Z,12.52
2022-09-24T06:45:36.271Z,10.45
2022-09-24T06:48:05.739Z,12.52
2022-09-24T06:50:35.815Z,10.05
2022-09-24T06:53:06.733Z,12.00
2022-09-24T06:55:35.188Z,11.40
2022-09-24T06:58:04.992Z,8.68
2022-09-24T07:00:34.919Z,12.43
2022-09-24T07:03:03.078Z,10.90
2022-09-24T07:05:30.945Z,11.63
2022-09-24T07:07:58.798Z,14.02
2022-09-24T07:10:28.042Z,12.10
2022-09-24T07:12:56.179Z,9.95
2022-09-24T07:15:24.033Z,10.75
2022-09-24T07:17:57.265Z,9.85
2022-09-24T07:20:28.067Z,10.88
2022-09-24T07:22:56.700Z,10.27
2022-09-24T07:25:24.904Z,12.73
2022-09-24T07:27:52.756Z,10.50
2022-09-24T07:30:20.902Z,9.70
2022-09-24T07:32:50.629Z,15.13
2022-09-24T07:35:21.070Z,7.03
2022-09-24T07:37:48.976Z,8.18
2022-09-24T07:40:17.268Z,10.60
2022-09-24T07:42:48.950Z,7.88
2022-09-24T07:45:17.400Z,7.13
2022-09-24T07:47:45.228Z,6.45
2022-09-24T07:50:13.698Z,11.07
2022-09-24T07:52:42.885Z,6.22
2022-09-24T07:55:10.906Z,5.95
2022-09-24T07:57:39.360Z,7.45
2022-09-24T08:00:09.088Z,5.70
2022-09-24T08:02:37.042Z,7.22
2022-09-24T08:05:05.387Z,5.72
2022-09-24T08:07:33.270Z,6.90
2022-09-24T08:10:02.847Z,7.20
2022-09-24T08:12:30.701Z,7.32
2022-09-24T08:14:58.645Z,7.68
2022-09-24T08:17:26.521Z,6.95
2022-09-24T08:19:56.786Z,11.27
2022-09-24T08:22:26.438Z,7.10
2022-09-24T08:24:54.850Z,9.10
2022-09-24T08:27:25.196Z,7.25
2022-09-24T08:29:53.156Z,9.25
2022-09-24T08:32:20.971Z,9.02
2022-09-24T08:34:48.870Z,12.30
2022-09-24T08:37:16.703Z,17.40
2022-09-24T08:39:44.539Z,10.32
2022-09-24T08:42:29.531Z,16.55
2022-09-24T08:45:17.388Z,8.05
2022-09-24T08:47:49.865Z,8.52
2022-09-24T08:50:21.447Z,12.38
2022-09-24T08:53:06.498Z,9.68
2022-09-24T08:55:38.680Z,12.98
2022-09-24T08:58:27.301Z,10.07
2022-09-24T09:01:06.136Z,10.40
2022-09-24T09:03:41.570Z,13.40
2022-09-24T09:06:17.891Z,15.02
2022-09-24T09:09:06.207Z,10.63
2022-09-24T09:11:36.906Z,10.15
2022-09-24T09:14:10.781Z,11.32
2022-09-24T09:16:47.365Z,10.88
2022-09-24T09:19:18.045Z,10.80
2022-09-24T09:21:52.546Z,9.80
2022-09-24T09:24:23.332Z,11.77
2022-09-24T09:26:55.160Z,13.00
2022-09-24T09:29:26.019Z,12.65
2022-09-24T09:32:04.070Z,10.48
2022-09-24T09:34:52.727Z,8.98
2022-09-24T09:37:29.128Z,8.68
2022-09-24T09:40:07.653Z,8.93
2022-09-24T09:42:37.078Z,7.47
2022-09-24T09:45:22.004Z,9.27
2022-09-24T09:47:57.495Z,6.70
2022-09-24T09:50:29.095Z,6.05
2022-09-24T09:52:57.317Z,6.55
2022-09-24T09:55:27.671Z,5.75
2022-09-24T09:58:08.962Z,6.80
2022-09-24T10:00:37.969Z,5.60
2022-09-24T10:03:22.427Z,5.30
2022-09-24T10:05:55.697Z,8.48
2022-09-24T10:08:24.786Z,6.80
2022-09-24T10:10:56.344Z,9.40
2022-09-24T10:13:25.182Z,9.00
2022-09-24T10:15:55.104Z,12.70
2022-09-24T10:18:30.623Z,9.65
2022-09-24T10:21:02.591Z,8.38
2022-09-24T10:23:36.527Z,11.05
2022-09-24T10:26:06.508Z,11.25
2022-09-24T10:28:53.889Z,8.32
2022-09-24T10:31:24.372Z,11.80
2022-09-24T10:33:56.283Z,10.68
2022-09-24T10:36:25.751Z,9.65
2022-09-24T10:39:04.125Z,8.52
2022-09-24T10:41:32.706Z,9.50
2022-09-24T10:44:05.609Z,8.82
2022-09-24T10:46:50.358Z,8.45
2022-09-24T10:49:32.457Z,9.35
2022-09-24T10:52:10.144Z,8.73
2022-09-24T10:54:53.259Z,7.20
2022-09-24T10:57:27.602Z,8.55
2022-09-24T11:00:04.467Z,7.53
2022-09-24T11:02:50.293Z,6.93
2022-09-24T11:05:23.105Z,8.23
2022-09-24T11:08:05.003Z,9.52
2022-09-24T11:10:51.654Z,5.95
2022-09-24T11:13:31.853Z,6.15
2022-09-24T11:16:35.793Z,6.40
2022-09-24T11:19:06.847Z,6.85
2022-09-24T11:21:57.555Z,6.53
2022-09-24T11:24:39.463Z,7.43
2022-09-24T11:27:28.036Z,6.30
2022-09-24T11:30:09.672Z,6.10
2022-09-24T11:32:48.463Z,7.40
2022-09-24T11:35:45.340Z,6.53
2022-09-24T11:38:19.082Z,7.35
2022-09-24T11:41:01.136Z,6.72
2022-09-24T11:43:46.647Z,7.65
2022-09-24T11:46:32.139Z,6.78
2022-09-24T11:49:22.720Z,10.80
2022-09-24T11:51:56.662Z,8.07
2022-09-24T11:54:30.604Z,9.65
2022-09-24T11:57:03.799Z,5.70
2022-09-24T11:59:39.928Z,6.72
2022-09-24T12:02:17.039Z,8.45
2022-09-24T12:04:53.420Z,6.78
2022-09-24T12:07:28.406Z,9.23
2022-09-24T12:10:02.175Z,11.45
2022-09-24T12:12:34.315Z,5.93
2022-09-24T12:15:08.623Z,7.85
2022-09-24T12:17:44.598Z,6.25
2022-09-24T12:20:20.307Z,7.93
2022-09-24T12:22:50.430Z,8.75
2022-09-24T12:25:19.593Z,6.22
2022-09-24T12:27:48.373Z,9.68
2022-09-24T12:30:44.355Z,7.57
2022-09-24T12:33:17.969Z,8.98
2022-09-24T12:35:56.346Z,11.70
2022-09-24T12:38:31.053Z,6.95
2022-09-24T12:41:25.811Z,7.53
2022-09-24T12:43:59.095Z,8.30
2022-09-24T12:46:30.963Z,8.27
2022-09-24T12:48:59.550Z,7.50
2022-09-24T12:51:36.275Z,7.38
2022-09-24T12:54:09.347Z,10.55
2022-09-24T12:56:38.972Z,7.60
2022-09-24T12:59:06.829Z,9.15
2022-09-24T13:01:35.728Z,10.80
2022-09-24T13:04:29.461Z,15.27
2022-09-24T13:06:57.486Z,8.75
2022-09-24T13:09:36.102Z,8.82
2022-09-24T13:12:20.608Z,7.57
2022-09-24T13:14:57.690Z,11.32
2022-09-24T13:17:26.063Z,7.50
2022-09-24T13:19:59.285Z,6.65
2022-09-24T13:22:29.859Z,6.05
2022-09-24T13:25:21.189Z,7.70
2022-09-24T13:28:00.159Z,7.05
2022-09-24T13:30:36.312Z,6.35
2022-09-24T13:33:12.074Z,6.13
2022-09-24T13:35:46.531Z,6.25
2022-09-24T13:38:22.347Z,6.03
2022-09-24T13:40:56.625Z,8.05
2022-09-24T13:43:39.282Z,5.60
2022-09-24T13:46:14.275Z,4.75
2022-09-24T13:48:48.299Z,5.88
2022-09-24T13:51:18.589Z,7.13
2022-09-24T13:53:52.447Z,4.75
2022-09-24T13:56:21.078Z,5.32
2022-09-24T13:58:51.399Z,5.22
2022-09-24T14:01:23.701Z,5.72
2022-09-24T14:03:57.059Z,3.88
2022-09-24T14:06:34.968Z,5.28
2022-09-24T14:09:03.407Z,10.75
2022-09-24T14:11:31.791Z,6.82
2022-09-24T14:14:12.183Z,4.65
2022-09-24T14:16:40.007Z,4.95
2022-09-24T14:19:07.997Z,3.90
2022-09-24T14:21:38.781Z,3.65
2022-09-24T14:24:16.812Z,4.63
2022-09-24T14:26:50.256Z,5.00
2022-09-24T14:29:23.148Z,6.63
2022-09-24T14:31:54.202Z,4.70
2022-09-24T14:34:27.349Z,6.40
2022-09-24T14:36:58.871Z,4.38
2022-09-24T14:39:29.529Z,4.10
2022-09-24T14:41:59.315Z,4.43
2022-09-24T14:44:30.537Z,5.18
2022-09-24T14:47:00.325Z,5.45
2022-09-24T14:49:30.726Z,5.47
2022-09-24T14:52:00.285Z,8.88
2022-09-24T14:54:33.276Z,6.22
2022-09-24T14:57:12.477Z,5.22
2022-09-24T14:59:42.747Z,5.20
2022-09-24T15:02:18.918Z,4.32
2022-09-24T15:04:48.531Z,4.55
2022-09-24T15:07:18.969Z,7.07
2022-09-24T15:09:51.287Z,4.28
2022-09-24T15:12:22.047Z,5.43
2022-09-24T15:14:59.338Z,5.53
2022-09-24T15:17:32.267Z,5.37
2022-09-24T15:20:00.349Z,5.75
2022-09-24T15:22:29.537Z,5.20
2022-09-24T15:25:01.485Z,7.05
2022-09-24T15:27:32.025Z,6.05
2022-09-24T15:30:02.700Z,4.65
2022-09-24T15:32:32.595Z,8.40
2022-09-24T15:35:01.969Z,4.22
2022-09-24T15:37:30.846Z,8.23
2022-09-24T15:40:01.253Z,8.65
2022-09-24T15:42:29.289Z,5.50
2022-09-24T15:44:59.191Z,5.82
2022-09-24T15:47:28.434Z,6.45
2022-09-24T15:49:56.245Z,6.50
2022-09-24T15:52:28.447Z,4.80
2022-09-24T15:54:58.537Z,4.38
2022-09-24T15:57:26.687Z,6.60
2022-09-24T15:59:55.348Z,7.00
2022-09-24T16:02:27.066Z,4.95
2022-09-24T16:05:02.694Z,5.22
2022-09-24T16:07:31.600Z,4.82
2022-09-24T16:09:59.484Z,7.15
2022-09-24T16:12:28.220Z,6.32
2022-09-24T16:14:59.243Z,5.68
2022-09-24T16:17:27.574Z,7.20
2022-09-24T16:19:56.880Z,8.05
2022-09-24T16:22:25.036Z,6.05
2022-09-24T16:24:54.062Z,7.53
2022-09-24T16:27:21.953Z,5.53
2022-09-24T16:29:49.844Z,6.75
2022-09-24T16:32:17.707Z,5.35
2022-09-24T16:34:45.673Z,7.65
2022-09-24T16:37:16.720Z,7.22
2022-09-24T16:39:44.564Z,6.03
2022-09-24T16:42:12.394Z,5.78
2022-09-24T16:44:40.242Z,6.10
2022-09-24T16:47:08.113Z,6.32
2022-09-24T16:49:35.943Z,7.55
2022-09-24T16:52:04.337Z,5.78
2022-09-24T16:54:33.721Z,7.80
2022-09-24T16:57:01.828Z,7.80
2022-09-24T16:59:29.744Z,7.95
2022-09-24T17:01:57.665Z,7.97
2022-09-24T17:04:27.119Z,7.95
2022-09-24T17:06:55.083Z,7.95
2022-09-24T17:09:40.973Z,6.30
2022-09-24T17:12:11.155Z,6.63
2022-09-24T17:14:40.019Z,11.63
2022-09-24T17:17:08.123Z,6.50
2022-09-24T17:19:36.002Z,7.65
2022-09-24T17:22:03.843Z,8.05
2022-09-24T17:24:32.524Z,7.45
2022-09-24T17:27:00.721Z,8.25
2022-09-24T17:29:31.765Z,10.20
2022-09-24T17:32:00.018Z,9.18
2022-09-24T17:34:28.533Z,8.82
2022-09-24T17:36:56.483Z,7.78
2022-09-24T17:39:24.530Z,13.15
2022-09-24T17:41:52.395Z,13.32
2022-09-24T17:44:20.468Z,14.43
2022-09-24T17:46:49.767Z,13.95
2022-09-24T17:49:17.771Z,16.48
2022-09-24T17:51:49.497Z,14.77
2022-09-24T17:54:21.440Z,13.93
2022-09-24T17:56:49.266Z,16.70
2022-09-24T17:59:17.087Z,14.43
2022-09-24T18:01:45.779Z,20.50
2022-09-24T18:04:17.644Z,17.73
2022-09-24T18:06:47.311Z,16.65
2022-09-24T18:09:16.312Z,15.38
2022-09-24T18:11:46.121Z,17.42
2022-09-24T18:14:15.445Z,15.10
2022-09-24T18:16:43.701Z,14.23
2022-09-24T18:19:14.990Z,14.93
2022-09-24T18:21:42.853Z,15.52
2022-09-24T18:24:11.640Z,15.88
2022-09-24T18:26:40.185Z,16.35
2022-09-24T18:29:12.431Z,12.02
2022-09-24T18:31:41.226Z,14.45
2022-09-24T18:34:10.900Z,14.35
2022-09-24T18:36:41.784Z,17.17
2022-09-24T18:39:13.237Z,17.17
2022-09-24T18:41:43.308Z,16.10
2022-09-24T18:44:11.239Z,16.90
2022-09-24T18:46:40.094Z,17.65
2022-09-24T18:49:08.287Z,15.88
2022-09-24T18:51:38.582Z,21.77
2022-09-24T18:54:09.803Z,17.58
2022-09-24T18:56:37.763Z,15.45
2022-09-24T18:59:09.795Z,17.20
2022-09-24T19:01:38.219Z,19.48
2022-09-24T19:04:07.856Z,16.17
2022-09-24T19:06:36.939Z,19.02
2022-09-24T19:09:05.704Z,23.13
2022-09-24T19:11:35.591Z,25.13
2022-09-24T19:14:03.793Z,28.85
2022-09-24T19:16:32.012Z,22.75
2022-09-24T19:19:01.828Z,20.88
2022-09-24T19:21:29.949Z,23.33
2022-09-24T19:23:59.197Z,20.27
2022-09-24T19:26:28.965Z,25.17
2022-09-24T19:28:58.715Z,18.27
2022-09-24T19:31:29.565Z,15.65
2022-09-24T19:33:58.927Z,19.08
2022-09-24T19:36:26.849Z,19.35
2022-09-24T19:38:54.746Z,17.45
2022-09-24T19:41:25.074Z,18.92
2022-09-24T19:43:55.418Z,17.52
2022-09-24T19:46:26.413Z,21.17
2022-09-24T19:48:55.698Z,26.90
2022-09-24T19:51:25.676Z,16.80
2022-09-24T19:53:55.334Z,18.00
2022-09-24T19:56:25.393Z,18.20
2022-09-24T19:58:54.660Z,19.33
2022-09-24T20:01:25.660Z,17.63
2022-09-24T20:03:53.617Z,20.23
2022-09-24T20:06:23.575Z,17.55
2022-09-24T20:08:51.782Z,22.95
2022-09-24T20:11:21.512Z,15.93
2022-09-24T20:13:49.847Z,17.92
2022-09-24T20:16:19.940Z,16.27
2022-09-24T20:18:53.777Z,12.82
2022-09-24T20:21:21.628Z,15.73
2022-09-24T20:23:50.130Z,15.80
2022-09-24T20:26:36.075Z,13.07
2022-09-24T20:29:06.708Z,18.80
2022-09-24T20:31:34.947Z,13.82
2022-09-24T20:34:04.591Z,16.08
2022-09-24T20:36:32.569Z,16.35
2022-09-24T20:39:00.559Z,15.73
2022-09-24T20:41:28.435Z,24.15
2022-09-24T20:43:56.382Z,14.93
2022-09-24T20:46:26.003Z,14.68
2022-09-24T20:48:58.019Z,17.48
2022-09-24T20:51:28.517Z,16.30
2022-09-24T20:53:57.995Z,13.85
2022-09-24T20:56:26.732Z,14.27
2022-09-24T20:58:55.005Z,17.40
2022-09-24T21:01:23.467Z,16.70
2022-09-24T21:03:51.915Z,17.23
2022-09-24T21:06:22.769Z,19.98
2022-09-24T21:08:52.956Z,17.10
2022-09-24T21:11:22.614Z,19.98
2022-09-24T21:13:51.863Z,16.92
2022-09-24T21:16:21.078Z,16.77
2022-09-24T21:18:50.123Z,20.05
2022-09-24T21:21:19.280Z,20.40
2022-09-24T21:23:48.945Z,23.60
2022-09-24T21:26:19.984Z,18.98
2022-09-24T21:28:49.472Z,18.30
2022-09-24T21:31:21.039Z,17.75
2022-09-24T21:33:52.449Z,19.02
2022-09-24T21:36:21.802Z,19.83
2022-09-24T21:38:54.971Z,17.80
2022-09-24T21:41:25.997Z,21.63
2022-09-24T21:43:55.401Z,17.58
2022-09-24T21:46:24.035Z,19.80
2022-09-24T21:48:52.411Z,19.35
2022-09-24T21:51:22.138Z,15.80
2022-09-24T21:53:50.902Z,14.55
2022-09-24T21:56:19.072Z,17.15
2022-09-24T21:58:48.619Z,13.80
2022-09-24T22:01:18.717Z,13.35
2022-09-24T22:03:47.166Z,13.38
2022-09-24T22:06:15.288Z,12.02
2022-09-24T22:08:44.853Z,9.77
2022-09-24T22:11:13.362Z,10.02
2022-09-24T22:13:41.858Z,13.60
2022-09-24T22:16:12.959Z,18.13
2022-09-24T22:18:40.974Z,19.30
2022-09-24T22:21:11.064Z,21.95
2022-09-24T22:23:39.520Z,25.88
2022-09-24T22:26:09.077Z,24.77
2022-09-24T22:28:38.136Z,27.27
2022-09-24T22:31:08.418Z,27.98
2022-09-24T22:33:55.609Z,21.90
2022-09-24T22:36:24.478Z,24.08
2022-09-24T22:38:53.645Z,30.83
2022-09-24T22:41:21.539Z,20.92
2022-09-24T22:43:49.514Z,20.75
2022-09-24T22:46:17.973Z,21.67
2022-09-24T22:48:47.982Z,26.42
2022-09-24T22:51:16.074Z,44.97
2022-09-24T22:53:43.898Z,31.73
2022-09-24T22:56:14.374Z,28.85
2022-09-24T22:58:44.828Z,31.67
2022-09-24T23:01:15.108Z,28.05
2022-09-24T23:03:44.113Z,28.55
2022-09-24T23:06:13.361Z,26.75
2022-09-24T23:08:42.636Z,27.48
2022-09-24T23:11:12.392Z,36.58
2022-09-24T23:13:41.663Z,28.10
2022-09-24T23:16:11.635Z,30.67
2022-09-24T23:18:39.909Z,29.58
2022-09-24T23:21:09.087Z,27.90
2022-09-24T23:23:38.333Z,86.05
2022-09-24T23:26:08.041Z,77.25
2022-09-24T23:28:37.057Z,134.18
2022-09-24T23:31:05.513Z,113.88
2022-09-24T23:33:34.438Z,166.15
2022-09-24T23:36:03.765Z,105.45
2022-09-24T23:38:31.640Z,92.45
2022-09-24T23:41:02.133Z,78.68
2022-09-24T23:43:30.270Z,71.95
2022-09-24T23:45:58.471Z,101.03
2022-09-24T23:48:26.645Z,88.72
2022-09-24T23:50:55.052Z,74.40
2022-09-24T23:53:22.874Z,101.40
2022-09-24T23:55:50.923Z,77.53
2022-09-24T23:58:21.421Z,50.80
